createdAt,value
2024-02-19T00:02:05.886Z,21.98
2024-02-19T00:05:09.287Z,21.77
2024-02-19T00:08:11.723Z,26.55
2024-02-19T00:11:15.027Z,22.40
2024-02-19T00:14:17.221Z,26.90
2024-02-19T00:17:19.452Z,21.63
2024-02-19T00:20:21.764Z,23.17
2024-02-19T00:23:23.929Z,25.08
2024-02-19T00:26:26.091Z,20.52
2024-02-19T00:29:28.363Z,20.85
2024-02-19T00:32:30.779Z,17.48
2024-02-19T00:35:34.041Z,24.98
2024-02-19T00:38:36.300Z,25.27
2024-02-19T00:41:38.571Z,26.58
2024-02-19T00:44:40.773Z,20.48
2024-02-19T00:47:43.046Z,24.63
2024-02-19T00:50:45.781Z,19.20
2024-02-19T00:53:47.918Z,21.60
2024-02-19T00:56:50.049Z,25.08
2024-02-19T00:59:52.242Z,20.55
2024-02-19T01:02:54.779Z,22.52
2024-02-19T01:05:56.973Z,19.98
2024-02-19T01:08:59.202Z,22.80
2024-02-19T01:12:01.356Z,30.45
2024-02-19T01:15:04.551Z,19.95
2024-02-19T01:18:06.717Z,23.30
2024-02-19T01:21:08.876Z,21.33
2024-02-19T01:24:11.140Z,19.25
2024-02-19T01:27:13.266Z,16.92
2024-02-19T01:30:15.594Z,19.15
2024-02-19T01:33:17.754Z,19.10
2024-02-19T01:36:19.936Z,23.92
2024-02-19T01:39:22.894Z,18.45
2024-02-19T01:42:25.237Z,21.42
2024-02-19T01:45:27.675Z,17.50
2024-02-19T01:48:30.194Z,23.30
2024-02-19T01:51:36.771Z,19.58
2024-02-19T01:54:39.867Z,15.57
2024-02-19T01:57:43.654Z,18.08
2024-02-19T02:00:46.289Z,23.52
2024-02-19T02:03:48.822Z,18.73
2024-02-19T02:06:51.083Z,23.92
2024-02-19T02:09:53.825Z,19.77
2024-02-19T02:12:56.689Z,22.23
2024-02-19T02:15:58.895Z,20.45
2024-02-19T02:19:01.207Z,17.40
2024-02-19T02:22:03.738Z,18.88
2024-02-19T02:25:06.491Z,20.33
2024-02-19T02:28:08.863Z,18.00
2024-02-19T02:31:11.253Z,19.88
2024-02-19T02:34:14.005Z,22.38
2024-02-19T02:37:16.407Z,18.40
2024-02-19T02:40:18.737Z,20.48
2024-02-19T02:43:20.941Z,19.95
2024-02-19T02:46:23.163Z,17.65
2024-02-19T02:49:25.535Z,22.85
2024-02-19T02:52:28.043Z,25.38
2024-02-19T02:55:30.203Z,22.52
2024-02-19T02:58:34.510Z,18.10
2024-02-19T03:01:37.147Z,21.15
2024-02-19T03:04:39.618Z,21.52
2024-02-19T03:07:41.997Z,19.83
2024-02-19T03:10:44.534Z,20.23
2024-02-19T03:13:46.979Z,18.08
2024-02-19T03:16:49.228Z,19.05
2024-02-19T03:19:51.581Z,22.77
2024-02-19T03:22:54.379Z,19.23
2024-02-19T03:25:56.653Z,21.25
2024-02-19T03:28:58.868Z,16.02
2024-02-19T03:32:01.180Z,18.23
2024-02-19T03:35:04.710Z,20.95
2024-02-19T03:38:06.850Z,16.50
2024-02-19T03:41:09.394Z,16.00
2024-02-19T03:44:11.612Z,19.48
2024-02-19T03:47:13.843Z,20.63
2024-02-19T03:50:16.025Z,15.27
2024-02-19T03:53:18.473Z,19.85
2024-02-19T03:56:20.630Z,19.85
2024-02-19T03:59:23.858Z,24.48
2024-02-19T04:02:26.328Z,18.48
2024-02-19T04:05:28.572Z,21.80
2024-02-19T04:08:33.289Z,17.40
2024-02-19T04:11:36.060Z,17.92
2024-02-19T04:14:44.372Z,18.30
2024-02-19T04:17:51.124Z,16.85
2024-02-19T04:20:53.429Z,18.60
2024-02-19T04:23:56.687Z,19.23
2024-02-19T04:26:58.929Z,17.08
2024-02-19T04:30:01.112Z,17.63
2024-02-19T04:33:03.498Z,16.67
2024-02-19T04:36:08.158Z,75.70
2024-02-19T04:39:11.981Z,27.48
2024-02-19T04:42:14.443Z,21.15
2024-02-19T04:45:16.570Z,23.50
2024-02-19T04:48:18.718Z,19.23
2024-02-19T04:51:20.854Z,20.10
2024-02-19T04:54:23.081Z,28.17
2024-02-19T04:57:25.236Z,21.60
2024-02-19T05:00:27.409Z,19.45
2024-02-19T05:03:29.707Z,21.50
2024-02-19T05:06:31.998Z,23.25
2024-02-19T05:09:34.235Z,18.55
2024-02-19T05:12:36.656Z,18.85
2024-02-19T05:15:38.987Z,14.00
2024-02-19T05:18:41.211Z,16.98
2024-02-19T05:21:43.603Z,18.98
2024-02-19T05:24:48.120Z,20.33
2024-02-19T05:27:50.464Z,17.05
2024-02-19T05:30:53.824Z,20.58
2024-02-19T05:36:58.067Z,21.98
2024-02-19T05:40:00.349Z,20.48
2024-02-19T05:43:02.611Z,21.13
2024-02-19T05:46:07.292Z,15.90
2024-02-19T05:49:11.473Z,19.08
2024-02-19T05:52:13.915Z,15.57
2024-02-19T05:55:16.202Z,18.42
2024-02-19T05:58:18.501Z,14.52
2024-02-19T06:01:23.274Z,15.30
2024-02-19T06:04:25.584Z,15.23
2024-02-19T06:07:27.880Z,17.85
2024-02-19T06:10:30.106Z,20.02
2024-02-19T06:13:32.434Z,21.17
2024-02-19T06:16:34.608Z,19.35
2024-02-19T06:19:40.220Z,19.50
2024-02-19T06:22:43.803Z,16.65
2024-02-19T06:25:46.058Z,20.13
2024-02-19T06:28:48.247Z,18.70
2024-02-19T06:31:53.254Z,22.75
2024-02-19T06:34:55.866Z,20.23
2024-02-19T06:37:58.186Z,21.08
2024-02-19T06:41:00.372Z,19.17
2024-02-19T06:44:02.650Z,19.85
2024-02-19T06:47:05.067Z,18.90
2024-02-19T06:50:07.794Z,16.55
2024-02-19T06:53:10.026Z,18.08
2024-02-19T06:56:13.518Z,19.35
2024-02-19T06:59:16.496Z,17.88
2024-02-19T07:02:18.793Z,9.20
2024-02-19T07:05:21.418Z,17.83
2024-02-19T07:08:26.632Z,24.73
2024-02-19T07:11:29.032Z,20.67
2024-02-19T07:14:31.210Z,20.80
2024-02-19T07:17:33.434Z,22.33
2024-02-19T07:20:35.692Z,21.13
2024-02-19T07:23:37.916Z,23.33
2024-02-19T07:26:40.122Z,19.23
2024-02-19T07:29:43.150Z,20.38
2024-02-19T07:32:45.529Z,23.00
2024-02-19T07:35:47.905Z,23.42
2024-02-19T07:38:50.069Z,23.10
2024-02-19T07:41:52.267Z,15.60
2024-02-19T07:44:54.478Z,16.75
2024-02-19T07:47:56.639Z,22.08
2024-02-19T07:50:58.867Z,11.02
2024-02-19T07:54:01.025Z,14.85
2024-02-19T07:57:03.266Z,13.70
2024-02-19T08:00:06.501Z,21.88
2024-02-19T08:03:09.238Z,23.90
2024-02-19T08:06:11.393Z,19.30
2024-02-19T08:09:13.563Z,20.38
2024-02-19T08:12:15.764Z,21.58
2024-02-19T08:15:17.957Z,18.58
2024-02-19T08:18:21.785Z,22.23
2024-02-19T08:21:24.427Z,19.77
2024-02-19T08:24:26.647Z,50.42
2024-02-19T08:27:28.905Z,35.17
2024-02-19T08:30:31.602Z,18.90
2024-02-19T08:33:33.749Z,21.20
2024-02-19T08:36:35.967Z,19.70
2024-02-19T08:39:39.689Z,19.80
2024-02-19T08:42:43.309Z,22.73
2024-02-19T08:45:45.593Z,20.30
2024-02-19T08:48:47.909Z,20.70
2024-02-19T08:51:50.222Z,31.30
2024-02-19T08:54:52.479Z,20.13
2024-02-19T08:57:54.750Z,23.83
2024-02-19T09:00:58.533Z,26.52
2024-02-19T09:04:01.069Z,29.60
2024-02-19T09:07:03.415Z,22.95
2024-02-19T09:10:06.445Z,34.30
2024-02-19T09:13:08.751Z,36.83
2024-02-19T09:16:11.100Z,29.25
2024-02-19T09:19:15.451Z,28.48
2024-02-19T09:22:18.198Z,28.35
2024-02-19T09:25:20.497Z,34.92
2024-02-19T09:28:23.202Z,26.92
2024-02-19T09:31:27.232Z,28.60
2024-02-19T09:34:30.011Z,26.50
2024-02-19T09:37:32.499Z,27.30
2024-02-19T09:40:37.198Z,28.13
2024-02-19T09:43:40.195Z,21.77
2024-02-19T09:46:43.064Z,26.33
2024-02-19T09:49:45.768Z,27.73
2024-02-19T09:52:48.232Z,26.05
2024-02-19T09:55:50.814Z,31.73
2024-02-19T09:58:53.543Z,27.33
2024-02-19T10:01:55.882Z,29.88
2024-02-19T10:05:00.331Z,38.03
2024-02-19T10:08:06.322Z,33.92
2024-02-19T10:11:12.046Z,30.98
2024-02-19T10:14:14.876Z,28.55
2024-02-19T10:17:30.080Z,28.88
2024-02-19T10:20:34.028Z,26.63
2024-02-19T10:23:36.218Z,29.90
2024-02-19T10:26:38.909Z,25.67
2024-02-19T10:29:41.116Z,25.73
2024-02-19T10:32:43.915Z,29.02
2024-02-19T10:35:48.232Z,27.98
2024-02-19T10:38:50.762Z,24.02
2024-02-19T10:41:53.045Z,24.88
2024-02-19T10:44:58.000Z,27.15
2024-02-19T10:48:00.495Z,30.13
2024-02-19T10:51:06.332Z,31.13
2024-02-19T10:54:08.574Z,32.70
2024-02-19T10:57:18.265Z,29.10
2024-02-19T11:00:27.589Z,25.70
2024-02-19T11:03:31.553Z,28.08
2024-02-19T11:06:35.315Z,28.55
2024-02-19T11:09:38.270Z,26.25
2024-02-19T11:12:41.387Z,29.75
2024-02-19T11:15:43.873Z,25.38
2024-02-19T11:18:46.453Z,25.60
2024-02-19T11:21:48.911Z,26.00
2024-02-19T11:24:52.153Z,21.88
2024-02-19T11:31:03.785Z,30.17
2024-02-19T11:34:06.444Z,30.48
2024-02-19T11:37:09.937Z,31.35
2024-02-19T11:40:12.782Z,24.98
2024-02-19T11:43:16.712Z,26.10
2024-02-19T11:46:20.618Z,28.50
2024-02-19T11:49:23.921Z,31.85
2024-02-19T11:52:26.299Z,27.10
2024-02-19T11:55:32.228Z,36.47
2024-02-19T11:58:34.626Z,30.10
2024-02-19T12:01:38.290Z,29.38
2024-02-19T12:04:40.848Z,28.40
2024-02-19T12:07:43.755Z,24.90
2024-02-19T12:10:47.075Z,30.58
2024-02-19T12:13:49.276Z,33.58
2024-02-19T12:16:51.523Z,29.05
2024-02-19T12:19:57.059Z,33.72
2024-02-19T12:22:59.705Z,30.98
2024-02-19T12:26:02.019Z,25.35
2024-02-19T12:29:04.274Z,23.85
2024-02-19T12:32:06.585Z,34.28
2024-02-19T12:35:09.765Z,29.70
2024-02-19T12:38:12.525Z,27.23
2024-02-19T12:41:17.187Z,27.83
2024-02-19T12:44:19.955Z,25.70
2024-02-19T12:47:24.734Z,23.17
2024-02-19T12:50:29.122Z,29.35
2024-02-19T12:53:31.983Z,34.45
2024-02-19T12:56:34.191Z,26.90
2024-02-19T12:59:36.364Z,28.83
2024-02-19T13:02:38.701Z,26.27
2024-02-19T13:05:41.200Z,25.38
2024-02-19T13:08:45.359Z,27.73
2024-02-19T13:11:47.673Z,26.20
2024-02-19T13:14:49.884Z,26.60
2024-02-19T13:17:52.194Z,22.08
2024-02-19T13:20:57.680Z,22.52
2024-02-19T13:24:00.325Z,25.05
2024-02-19T13:27:02.529Z,27.27
2024-02-19T13:30:05.956Z,25.00
2024-02-19T13:33:08.479Z,25.77
2024-02-19T13:36:10.616Z,24.55
2024-02-19T13:39:13.634Z,19.80
2024-02-19T13:42:15.852Z,27.63
2024-02-19T13:45:24.635Z,27.95
2024-02-19T13:48:27.541Z,26.48
2024-02-19T13:51:30.235Z,32.95
2024-02-19T13:54:32.489Z,31.67
2024-02-19T13:57:34.728Z,36.40
2024-02-19T14:00:36.867Z,30.48
2024-02-19T14:03:39.094Z,27.00
2024-02-19T14:06:41.450Z,28.50
2024-02-19T14:09:43.882Z,33.97
2024-02-19T14:12:46.049Z,21.38
2024-02-19T14:15:48.318Z,24.35
2024-02-19T14:18:50.602Z,23.67
2024-02-19T14:21:54.170Z,20.85
2024-02-19T14:24:56.332Z,25.83
2024-02-19T14:28:00.678Z,23.10
2024-02-19T14:31:03.969Z,19.98
2024-02-19T14:34:07.995Z,22.80
2024-02-19T14:37:11.057Z,25.08
2024-02-19T14:40:18.816Z,24.98
2024-02-19T14:43:21.339Z,25.52
2024-02-19T14:46:23.753Z,27.60
2024-02-19T14:49:26.126Z,22.20
2024-02-19T14:52:28.648Z,24.67
2024-02-19T14:55:31.197Z,28.38
2024-02-19T14:58:33.998Z,21.77
2024-02-19T15:01:38.413Z,21.77
2024-02-19T15:04:41.815Z,28.83
2024-02-19T15:07:46.291Z,85.65
2024-02-19T15:10:48.832Z,32.38
2024-02-19T15:13:51.100Z,24.30
2024-02-19T15:16:53.437Z,27.65
2024-02-19T15:19:56.456Z,21.63
2024-02-19T15:22:58.686Z,24.92
2024-02-19T15:26:02.552Z,23.17
2024-02-19T15:29:05.500Z,26.92
2024-02-19T15:32:08.889Z,24.40
2024-02-19T15:35:11.377Z,35.35
2024-02-19T15:38:14.171Z,31.17
2024-02-19T15:41:21.106Z,29.90
2024-02-19T15:44:23.392Z,24.70
2024-02-19T15:47:26.625Z,24.92
2024-02-19T15:50:29.072Z,28.38
2024-02-19T15:53:31.220Z,27.52
2024-02-19T15:56:33.407Z,30.42
2024-02-19T15:59:36.217Z,25.38
2024-02-19T16:02:41.429Z,31.73
2024-02-19T16:05:44.592Z,32.10
2024-02-19T16:11:51.102Z,29.90
2024-02-19T16:14:53.247Z,37.45
2024-02-19T16:17:55.474Z,46.38
2024-02-19T16:20:57.717Z,61.72
2024-02-19T16:23:59.934Z,29.42
2024-02-19T16:27:05.351Z,29.65
2024-02-19T16:30:10.339Z,28.85
2024-02-19T16:33:13.534Z,31.27
2024-02-19T16:36:16.124Z,25.13
2024-02-19T16:39:18.294Z,34.88
2024-02-19T16:42:20.563Z,31.00
2024-02-19T16:45:26.832Z,32.75
2024-02-19T16:48:29.447Z,29.83
2024-02-19T16:51:31.763Z,25.00
2024-02-19T16:54:33.974Z,29.33
2024-02-19T16:57:36.279Z,21.58
2024-02-19T17:00:38.520Z,31.50
2024-02-19T17:03:40.936Z,31.67
2024-02-19T17:06:45.181Z,27.70
2024-02-19T17:09:47.606Z,30.85
2024-02-19T17:12:49.876Z,32.45
2024-02-19T17:15:52.144Z,30.08
2024-02-19T17:18:54.334Z,40.50
2024-02-19T17:21:56.707Z,27.77
2024-02-19T17:24:59.005Z,27.98
2024-02-19T17:28:01.294Z,23.80
2024-02-19T17:31:04.620Z,27.00
2024-02-19T17:34:07.058Z,37.75
2024-02-19T17:37:10.220Z,29.20
2024-02-19T17:40:12.865Z,30.00
2024-02-19T17:43:15.726Z,32.20
2024-02-19T17:46:18.130Z,29.48
2024-02-19T17:49:20.481Z,30.40
2024-02-19T17:52:22.821Z,34.83
2024-02-19T17:55:25.179Z,28.02
2024-02-19T18:01:52.111Z,25.38
2024-02-19T18:04:57.509Z,26.60
2024-02-19T18:07:59.784Z,33.58
2024-02-19T18:11:02.632Z,27.60
2024-02-19T18:14:04.806Z,70.43
2024-02-19T18:17:06.972Z,37.85
2024-02-19T18:20:11.034Z,30.63
2024-02-19T18:23:13.539Z,37.40
2024-02-19T18:26:15.693Z,36.15
2024-02-19T18:29:18.303Z,31.70
2024-02-19T18:32:20.822Z,31.50
2024-02-19T18:35:23.117Z,25.83
2024-02-19T18:38:25.485Z,26.30
2024-02-19T18:41:28.841Z,28.92
2024-02-19T18:44:31.182Z,29.65
2024-02-19T18:47:33.306Z,31.35
2024-02-19T18:50:35.831Z,33.88
2024-02-19T18:53:38.548Z,35.13
2024-02-19T18:56:40.757Z,35.10
2024-02-19T18:59:42.983Z,32.95
2024-02-19T19:02:45.715Z,69.90
2024-02-19T19:05:48.301Z,73.50
2024-02-19T19:08:50.515Z,46.35
2024-02-19T19:11:52.869Z,38.88
2024-02-19T19:14:55.047Z,31.70
2024-02-19T19:17:57.229Z,33.45
2024-02-19T19:20:59.384Z,35.28
2024-02-19T19:24:01.837Z,31.60
2024-02-19T19:27:05.702Z,37.50
2024-02-19T19:30:08.676Z,32.00
2024-02-19T19:33:11.939Z,34.03
2024-02-19T19:36:14.745Z,31.55
2024-02-19T19:39:17.326Z,28.27
2024-02-19T19:42:21.359Z,27.75
2024-02-19T19:45:24.358Z,100.45
2024-02-19T19:48:29.001Z,55.00
2024-02-19T19:51:31.615Z,31.92
2024-02-19T19:54:33.832Z,35.50
2024-02-19T19:57:36.079Z,33.38
2024-02-19T20:00:38.290Z,30.33
2024-02-19T20:03:40.515Z,32.47
2024-02-19T20:06:42.743Z,36.95
2024-02-19T20:09:47.202Z,44.45
2024-02-19T20:12:50.871Z,30.60
2024-02-19T20:15:53.233Z,35.72
2024-02-19T20:18:56.982Z,30.02
2024-02-19T20:21:59.445Z,31.80
2024-02-19T20:25:01.728Z,37.70
2024-02-19T20:28:05.663Z,31.08
2024-02-19T20:31:08.054Z,32.05
2024-02-19T20:34:12.558Z,26.75
2024-02-19T20:37:16.101Z,24.80
2024-02-19T20:40:19.651Z,28.23
2024-02-19T20:43:22.060Z,26.08
2024-02-19T20:46:24.591Z,29.83
2024-02-19T20:49:26.853Z,32.38
2024-02-19T20:52:29.959Z,26.27
2024-02-19T20:55:32.225Z,28.27
2024-02-19T20:58:34.910Z,28.25
2024-02-19T21:01:37.318Z,27.55
2024-02-19T21:04:39.733Z,22.60
2024-02-19T21:07:44.946Z,24.77
2024-02-19T21:10:49.239Z,23.08
2024-02-19T21:13:51.456Z,20.27
2024-02-19T21:16:53.669Z,21.83
2024-02-19T21:19:59.523Z,22.98
2024-02-19T21:23:02.140Z,19.15
2024-02-19T21:26:04.567Z,17.15
2024-02-19T21:29:06.717Z,23.52
2024-02-19T21:32:08.990Z,23.70
2024-02-19T21:35:14.134Z,21.40
2024-02-19T21:38:16.433Z,21.60
2024-02-19T21:41:18.928Z,22.25
2024-02-19T21:44:22.966Z,23.20
2024-02-19T21:47:25.276Z,16.60
2024-02-19T21:50:31.268Z,15.05
2024-02-19T21:53:33.517Z,19.70
2024-02-19T21:56:36.054Z,18.23
2024-02-19T21:59:38.573Z,14.13
2024-02-19T22:02:40.899Z,12.82
2024-02-19T22:05:43.091Z,13.00
2024-02-19T22:08:45.231Z,14.35
2024-02-19T22:11:47.667Z,15.60
2024-02-19T22:14:49.857Z,15.27
2024-02-19T22:17:52.200Z,13.00
2024-02-19T22:20:54.555Z,14.93
2024-02-19T22:23:56.841Z,9.75
2024-02-19T22:26:59.260Z,10.98
2024-02-19T22:30:01.863Z,10.93
2024-02-19T22:33:04.248Z,13.15
2024-02-19T22:36:06.569Z,9.57
2024-02-19T22:39:10.916Z,9.05
2024-02-19T22:42:13.398Z,13.82
2024-02-19T22:45:15.602Z,11.18
2024-02-19T22:48:17.874Z,11.90
2024-02-19T22:51:20.237Z,11.13
2024-02-19T22:54:22.483Z,10.65
2024-02-19T22:57:24.655Z,9.98
2024-02-19T23:00:26.826Z,10.20
2024-02-19T23:03:29.322Z,10.38
2024-02-19T23:06:31.868Z,10.88
2024-02-19T23:09:34.181Z,6.90
2024-02-19T23:12:36.327Z,8.75
2024-02-19T23:15:38.445Z,11.85
2024-02-19T23:18:40.653Z,8.38
2024-02-19T23:21:42.899Z,10.35
2024-02-19T23:24:45.085Z,8.43
2024-02-19T23:27:47.200Z,9.10
2024-02-19T23:30:49.367Z,6.38
2024-02-19T23:33:51.994Z,9.30
2024-02-19T23:36:55.655Z,8.02
2024-02-19T23:39:59.478Z,9.88
2024-02-19T23:43:01.796Z,8.55
2024-02-19T23:46:04.094Z,10.20
2024-02-19T23:49:07.961Z,6.30
2024-02-19T23:52:10.568Z,6.28
2024-02-19T23:55:15.703Z,6.25
2024-02-19T23:58:17.960Z,4.82
